sensor_id;sensor_type;location;lat;lon;timestamp;temperature;humidity
51801;DHT22;37855;53.204;6.568;2022-09-29T00:01:08;8.50;99.90
51801;DHT22;37855;53.204;6.568;2022-09-29T00:03:35;8.50;99.90
51801;DHT22;37855;53.204;6.568;2022-09-29T00:06:01;8.40;99.90
51801;DHT22;37855;53.204;6.568;2022-09-29T00:08:29;8.40;99.90
51801;DHT22;37855;53.204;6.568;2022-09-29T00:10:55;8.30;99.90
51801;DHT22;37855;53.204;6.568;2022-09-29T00:13:21;8.40;99.90
51801;DHT22;37855;53.204;6.568;2022-09-29T00:15:58;8.40;99.90
51801;DHT22;37855;53.204;6.568;2022-09-29T00:18:24;8.40;99.90
51801;DHT22;37855;53.204;6.568;2022-09-29T00:21:00;8.40;99.90
51801;DHT22;37855;53.204;6.568;2022-09-29T00:23:27;8.40;99.90
51801;DHT22;37855;53.204;6.568;2022-09-29T00:28:25;8.30;99.90
51801;DHT22;37855;53.204;6.568;2022-09-29T00:30:51;8.30;99.90
51801;DHT22;37855;53.204;6.568;2022-09-29T00:33:17;8.30;99.90
51801;DHT22;37855;53.204;6.568;2022-09-29T00:35:42;8.30;99.90
51801;DHT22;37855;53.204;6.568;2022-09-29T00:38:11;8.30;99.90
51801;DHT22;37855;53.204;6.568;2022-09-29T00:40:36;8.30;99.90
51801;DHT22;37855;53.204;6.568;2022-09-29T00:43:02;8.30;99.90
51801;DHT22;37855;53.204;6.568;2022-09-29T00:45:27;8.30;99.90
51801;DHT22;37855;53.204;6.568;2022-09-29T00:48:07;8.20;99.90
51801;DHT22;37855;53.204;6.568;2022-09-29T00:50:45;8.20;99.90
51801;DHT22;37855;53.204;6.568;2022-09-29T00:53:14;8.20;99.90
51801;DHT22;37855;53.204;6.568;2022-09-29T00:56:07;8.20;99.90
51801;DHT22;37855;53.204;6.568;2022-09-29T00:58:43;8.20;99.90
51801;DHT22;37855;53.204;6.568;2022-09-29T01:01:12;8.20;99.90
51801;DHT22;37855;53.204;6.568;2022-09-29T01:03:43;8.20;99.90
51801;DHT22;37855;53.204;6.568;2022-09-29T01:06:30;8.20;99.90
51801;DHT22;37855;53.204;6.568;2022-09-29T01:09:04;8.20;99.90
51801;DHT22;37855;53.204;6.568;2022-09-29T01:11:30;8.30;99.90
51801;DHT22;37855;53.204;6.568;2022-09-29T01:13:59;8.20;99.90
51801;DHT22;37855;53.204;6.568;2022-09-29T01:16:30;8.20;99.90
51801;DHT22;37855;53.204;6.568;2022-09-29T01:18:58;8.30;99.90
51801;DHT22;37855;53.204;6.568;2022-09-29T01:33:14;8.20;99.90
51801;DHT22;37855;53.204;6.568;2022-09-29T01:38:12;8.20;99.90
51801;DHT22;37855;53.204;6.568;2022-09-29T01:40:50;8.20;99.90
51801;DHT22;37855;53.204;6.568;2022-09-29T01:43:33;8.20;99.90
51801;DHT22;37855;53.204;6.568;2022-09-29T01:46:03;8.20;99.90
51801;DHT22;37855;53.204;6.568;2022-09-29T01:48:41;8.20;99.90
51801;DHT22;37855;53.204;6.568;2022-09-29T01:51:14;8.20;99.90
51801;DHT22;37855;53.204;6.568;2022-09-29T01:53:49;8.10;99.90
51801;DHT22;37855;53.204;6.568;2022-09-29T01:56:22;8.20;99.90
51801;DHT22;37855;53.204;6.568;2022-09-29T01:58:59;8.10;99.90
51801;DHT22;37855;53.204;6.568;2022-09-29T02:01:33;8.10;99.90
51801;DHT22;37855;53.204;6.568;2022-09-29T02:04:20;8.10;99.90
51801;DHT22;37855;53.204;6.568;2022-09-29T02:06:58;8.10;99.90
51801;DHT22;37855;53.204;6.568;2022-09-29T02:09:32;8.10;99.90
51801;DHT22;37855;53.204;6.568;2022-09-29T02:12:01;8.20;99.90
51801;DHT22;37855;53.204;6.568;2022-09-29T02:14:32;8.20;99.90
51801;DHT22;37855;53.204;6.568;2022-09-29T02:17:17;8.10;99.90
51801;DHT22;37855;53.204;6.568;2022-09-29T02:19:45;8.20;99.90
51801;DHT22;37855;53.204;6.568;2022-09-29T02:22:12;8.10;99.90
51801;DHT22;37855;53.204;6.568;2022-09-29T02:24:41;8.10;99.90
51801;DHT22;37855;53.204;6.568;2022-09-29T02:27:08;8.10;99.90
51801;DHT22;37855;53.204;6.568;2022-09-29T02:29:35;8.10;99.90
51801;DHT22;37855;53.204;6.568;2022-09-29T02:32:02;8.10;99.90
51801;DHT22;37855;53.204;6.568;2022-09-29T02:34:30;8.10;99.90
51801;DHT22;37855;53.204;6.568;2022-09-29T02:37:52;8.00;99.90
51801;DHT22;37855;53.204;6.568;2022-09-29T02:48:54;8.20;99.90
51801;DHT22;37855;53.204;6.568;2022-09-29T02:51:30;8.00;99.90
51801;DHT22;37855;53.204;6.568;2022-09-29T02:54:28;8.00;99.90
51801;DHT22;37855;53.204;6.568;2022-09-29T02:57:21;7.90;99.90
51801;DHT22;37855;53.204;6.568;2022-09-29T03:00:05;7.90;99.90
51801;DHT22;37855;53.204;6.568;2022-09-29T03:02:40;7.90;99.90
51801;DHT22;37855;53.204;6.568;2022-09-29T03:05:17;7.90;99.90
51801;DHT22;37855;53.204;6.568;2022-09-29T03:07:43;7.90;99.90
51801;DHT22;37855;53.204;6.568;2022-09-29T03:10:10;7.90;99.90
51801;DHT22;37855;53.204;6.568;2022-09-29T03:12:36;7.80;99.90
51801;DHT22;37855;53.204;6.568;2022-09-29T03:15:02;7.80;99.90
51801;DHT22;37855;53.204;6.568;2022-09-29T03:17:31;7.80;99.90
51801;DHT22;37855;53.204;6.568;2022-09-29T03:19:57;7.90;99.90
51801;DHT22;37855;53.204;6.568;2022-09-29T03:22:23;7.80;99.90
51801;DHT22;37855;53.204;6.568;2022-09-29T03:24:49;7.80;99.90
51801;DHT22;37855;53.204;6.568;2022-09-29T03:27:14;7.80;99.90
51801;DHT22;37855;53.204;6.568;2022-09-29T03:29:40;7.80;99.90
51801;DHT22;37855;53.204;6.568;2022-09-29T03:32:09;7.80;99.90
51801;DHT22;37855;53.204;6.568;2022-09-29T03:34:35;7.80;99.90
51801;DHT22;37855;53.204;6.568;2022-09-29T03:37:01;7.80;99.90
51801;DHT22;37855;53.204;6.568;2022-09-29T03:39:27;7.80;99.90
51801;DHT22;37855;53.204;6.568;2022-09-29T03:41:53;7.80;99.90
51801;DHT22;37855;53.204;6.568;2022-09-29T03:44:19;7.80;99.90
51801;DHT22;37855;53.204;6.568;2022-09-29T03:46:45;7.80;99.90
51801;DHT22;37855;53.204;6.568;2022-09-29T03:49:13;7.80;99.90
51801;DHT22;37855;53.204;6.568;2022-09-29T03:51:40;7.70;99.90
51801;DHT22;37855;53.204;6.568;2022-09-29T03:54:06;7.70;99.90
51801;DHT22;37855;53.204;6.568;2022-09-29T03:56:32;7.70;99.90
51801;DHT22;37855;53.204;6.568;2022-09-29T03:58:58;7.60;99.90
51801;DHT22;37855;53.204;6.568;2022-09-29T04:01:24;7.70;99.90
51801;DHT22;37855;53.204;6.568;2022-09-29T04:03:53;7.70;99.90
51801;DHT22;37855;53.204;6.568;2022-09-29T04:06:18;7.70;99.90
51801;DHT22;37855;53.204;6.568;2022-09-29T04:08:46;7.70;99.90
51801;DHT22;37855;53.204;6.568;2022-09-29T04:11:14;7.70;99.90
51801;DHT22;37855;53.204;6.568;2022-09-29T04:13:39;7.70;99.90
51801;DHT22;37855;53.204;6.568;2022-09-29T04:16:05;7.60;99.90
51801;DHT22;37855;53.204;6.568;2022-09-29T04:18:31;7.70;99.90
51801;DHT22;37855;53.204;6.568;2022-09-29T04:20:58;7.60;99.90
51801;DHT22;37855;53.204;6.568;2022-09-29T04:23:28;7.70;99.90
51801;DHT22;37855;53.204;6.568;2022-09-29T04:25:56;7.70;99.90
51801;DHT22;37855;53.204;6.568;2022-09-29T04:28:22;7.70;99.90
51801;DHT22;37855;53.204;6.568;2022-09-29T04:30:48;7.80;99.90
51801;DHT22;37855;53.204;6.568;2022-09-29T04:33:14;7.60;99.90
51801;DHT22;37855;53.204;6.568;2022-09-29T04:35:39;7.60;99.90
51801;DHT22;37855;53.204;6.568;2022-09-29T04:38:05;7.60;99.90
51801;DHT22;37855;53.204;6.568;2022-09-29T04:40:33;7.60;99.90
51801;DHT22;37855;53.204;6.568;2022-09-29T04:42:59;7.60;99.90
51801;DHT22;37855;53.204;6.568;2022-09-29T04:45:24;7.60;99.90
51801;DHT22;37855;53.204;6.568;2022-09-29T04:47:50;7.60;99.90
51801;DHT22;37855;53.204;6.568;2022-09-29T04:50:16;7.60;99.90
51801;DHT22;37855;53.204;6.568;2022-09-29T04:52:42;7.60;99.90
51801;DHT22;37855;53.204;6.568;2022-09-29T04:55:09;7.60;99.90
51801;DHT22;37855;53.204;6.568;2022-09-29T04:57:36;7.60;99.90
51801;DHT22;37855;53.204;6.568;2022-09-29T05:00:04;7.60;99.90
51801;DHT22;37855;53.204;6.568;2022-09-29T05:02:30;7.60;99.90
51801;DHT22;37855;53.204;6.568;2022-09-29T05:04:55;7.60;99.90
51801;DHT22;37855;53.204;6.568;2022-09-29T05:07:21;7.60;99.90
51801;DHT22;37855;53.204;6.568;2022-09-29T05:09:48;7.60;99.90
51801;DHT22;37855;53.204;6.568;2022-09-29T05:12:13;7.60;99.90
51801;DHT22;37855;53.204;6.568;2022-09-29T05:14:39;7.60;99.90
51801;DHT22;37855;53.204;6.568;2022-09-29T05:17:06;7.60;99.90
51801;DHT22;37855;53.204;6.568;2022-09-29T05:19:32;7.60;99.90
51801;DHT22;37855;53.204;6.568;2022-09-29T05:21:58;7.60;99.90
51801;DHT22;37855;53.204;6.568;2022-09-29T05:24:24;7.50;99.90
51801;DHT22;37855;53.204;6.568;2022-09-29T05:27:02;7.50;99.90
51801;DHT22;37855;53.204;6.568;2022-09-29T05:29:28;7.50;99.90
51801;DHT22;37855;53.204;6.568;2022-09-29T05:31:54;7.60;99.90
51801;DHT22;37855;53.204;6.568;2022-09-29T05:34:20;7.50;99.90
51801;DHT22;37855;53.204;6.568;2022-09-29T05:36:49;7.50;99.90
51801;DHT22;37855;53.204;6.568;2022-09-29T05:39:14;7.60;99.90
51801;DHT22;37855;53.204;6.568;2022-09-29T05:41:41;7.50;99.90
51801;DHT22;37855;53.204;6.568;2022-09-29T05:44:07;7.50;99.90
51801;DHT22;37855;53.204;6.568;2022-09-29T05:46:35;7.50;99.90
51801;DHT22;37855;53.204;6.568;2022-09-29T05:49:00;7.50;99.90
51801;DHT22;37855;53.204;6.568;2022-09-29T05:51:26;7.50;99.90
51801;DHT22;37855;53.204;6.568;2022-09-29T05:53:52;7.50;99.90
51801;DHT22;37855;53.204;6.568;2022-09-29T05:56:23;7.50;99.90
51801;DHT22;37855;53.204;6.568;2022-09-29T05:58:55;7.50;99.90
51801;DHT22;37855;53.204;6.568;2022-09-29T06:01:23;7.70;99.90
51801;DHT22;37855;53.204;6.568;2022-09-29T06:03:49;7.50;99.90
51801;DHT22;37855;53.204;6.568;2022-09-29T06:06:20;7.50;99.90
51801;DHT22;37855;53.204;6.568;2022-09-29T06:08:47;7.60;99.90
51801;DHT22;37855;53.204;6.568;2022-09-29T06:11:27;7.50;99.90
51801;DHT22;37855;53.204;6.568;2022-09-29T06:13:54;7.50;99.90
51801;DHT22;37855;53.204;6.568;2022-09-29T06:16:23;7.50;99.90
51801;DHT22;37855;53.204;6.568;2022-09-29T06:18:49;7.50;99.90
51801;DHT22;37855;53.204;6.568;2022-09-29T06:21:22;7.50;99.90
51801;DHT22;37855;53.204;6.568;2022-09-29T06:23:49;7.60;99.90
51801;DHT22;37855;53.204;6.568;2022-09-29T06:26:17;7.50;99.90
51801;DHT22;37855;53.204;6.568;2022-09-29T06:28:44;7.60;99.90
51801;DHT22;37855;53.204;6.568;2022-09-29T06:31:17;7.60;99.90
51801;DHT22;37855;53.204;6.568;2022-09-29T06:33:49;7.60;99.90
51801;DHT22;37855;53.204;6.568;2022-09-29T06:36:23;7.60;99.90
51801;DHT22;37855;53.204;6.568;2022-09-29T06:39:11;7.60;99.90
51801;DHT22;37855;53.204;6.568;2022-09-29T06:41:37;7.60;99.90
51801;DHT22;37855;53.204;6.568;2022-09-29T06:44:05;7.60;99.90
51801;DHT22;37855;53.204;6.568;2022-09-29T06:46:31;7.70;99.90
51801;DHT22;37855;53.204;6.568;2022-09-29T06:48:57;7.70;99.90
51801;DHT22;37855;53.204;6.568;2022-09-29T06:51:24;7.70;99.90
51801;DHT22;37855;53.204;6.568;2022-09-29T06:53:50;7.70;99.90
51801;DHT22;37855;53.204;6.568;2022-09-29T06:56:16;7.80;99.90
51801;DHT22;37855;53.204;6.568;2022-09-29T06:58:44;7.90;99.90
51801;DHT22;37855;53.204;6.568;2022-09-29T07:01:11;7.80;99.90
51801;DHT22;37855;53.204;6.568;2022-09-29T07:03:38;7.90;99.90
51801;DHT22;37855;53.204;6.568;2022-09-29T07:06:05;7.90;99.90
51801;DHT22;37855;53.204;6.568;2022-09-29T07:08:32;7.90;99.90
51801;DHT22;37855;53.204;6.568;2022-09-29T07:11:01;8.00;99.90
51801;DHT22;37855;53.204;6.568;2022-09-29T07:13:29;8.00;99.90
51801;DHT22;37855;53.204;6.568;2022-09-29T07:15:55;8.00;99.90
51801;DHT22;37855;53.204;6.568;2022-09-29T07:18:21;8.00;99.90
51801;DHT22;37855;53.204;6.568;2022-09-29T07:20:47;8.10;99.90
51801;DHT22;37855;53.204;6.568;2022-09-29T07:23:13;8.10;99.90
51801;DHT22;37855;53.204;6.568;2022-09-29T07:25:38;8.10;99.90
51801;DHT22;37855;53.204;6.568;2022-09-29T07:28:05;8.20;99.90
51801;DHT22;37855;53.204;6.568;2022-09-29T07:30:34;8.20;99.90
51801;DHT22;37855;53.204;6.568;2022-09-29T07:33:01;8.30;99.90
51801;DHT22;37855;53.204;6.568;2022-09-29T07:35:27;8.30;99.90
51801;DHT22;37855;53.204;6.568;2022-09-29T07:37:53;8.40;99.90
51801;DHT22;37855;53.204;6.568;2022-09-29T07:40:21;8.40;99.90
51801;DHT22;37855;53.204;6.568;2022-09-29T07:42:47;8.50;99.90
51801;DHT22;37855;53.204;6.568;2022-09-29T07:45:18;8.50;99.90
51801;DHT22;37855;53.204;6.568;2022-09-29T07:47:46;8.60;99.90
51801;DHT22;37855;53.204;6.568;2022-09-29T07:50:12;8.70;99.90
51801;DHT22;37855;53.204;6.568;2022-09-29T07:52:38;8.80;99.90
51801;DHT22;37855;53.204;6.568;2022-09-29T07:55:04;8.80;99.90
51801;DHT22;37855;53.204;6.568;2022-09-29T07:57:35;8.90;99.90
51801;DHT22;37855;53.204;6.568;2022-09-29T08:00:03;9.30;99.90
51801;DHT22;37855;53.204;6.568;2022-09-29T08:02:28;9.00;99.90
51801;DHT22;37855;53.204;6.568;2022-09-29T08:04:55;9.10;99.90
51801;DHT22;37855;53.204;6.568;2022-09-29T08:07:21;9.30;99.90
51801;DHT22;37855;53.204;6.568;2022-09-29T08:09:47;9.30;99.90
51801;DHT22;37855;53.204;6.568;2022-09-29T08:12:13;9.30;99.90
51801;DHT22;37855;53.204;6.568;2022-09-29T08:14:39;9.40;99.90
51801;DHT22;37855;53.204;6.568;2022-09-29T08:17:04;9.50;99.90
51801;DHT22;37855;53.204;6.568;2022-09-29T08:19:30;9.60;99.90
51801;DHT22;37855;53.204;6.568;2022-09-29T08:21:56;9.70;99.90
51801;DHT22;37855;53.204;6.568;2022-09-29T08:24:21;9.80;99.90
51801;DHT22;37855;53.204;6.568;2022-09-29T08:26:47;9.90;99.90
51801;DHT22;37855;53.204;6.568;2022-09-29T08:29:13;9.90;99.90
51801;DHT22;37855;53.204;6.568;2022-09-29T08:31:39;10.30;99.90
51801;DHT22;37855;53.204;6.568;2022-09-29T08:34:06;10.10;99.90
51801;DHT22;37855;53.204;6.568;2022-09-29T08:36:32;10.20;99.90
51801;DHT22;37855;53.204;6.568;2022-09-29T08:38:58;10.20;99.90
51801;DHT22;37855;53.204;6.568;2022-09-29T08:46:43;10.50;99.90
51801;DHT22;37855;53.204;6.568;2022-09-29T08:49:21;10.50;99.90
51801;DHT22;37855;53.204;6.568;2022-09-29T08:51:55;10.60;99.90
51801;DHT22;37855;53.204;6.568;2022-09-29T08:54:38;10.70;99.90
51801;DHT22;37855;53.204;6.568;2022-09-29T08:57:13;10.70;99.90
51801;DHT22;37855;53.204;6.568;2022-09-29T09:00:00;10.90;99.90
51801;DHT22;37855;53.204;6.568;2022-09-29T09:03:10;10.90;99.90
51801;DHT22;37855;53.204;6.568;2022-09-29T09:08:02;11.10;99.90
51801;DHT22;37855;53.204;6.568;2022-09-29T09:11:03;11.20;99.90
51801;DHT22;37855;53.204;6.568;2022-09-29T09:13:56;11.20;99.90
51801;DHT22;37855;53.204;6.568;2022-09-29T09:17:01;11.30;99.90
51801;DHT22;37855;53.204;6.568;2022-09-29T09:22:12;11.50;99.90
51801;DHT22;37855;53.204;6.568;2022-09-29T09:25:06;11.60;99.90
51801;DHT22;37855;53.204;6.568;2022-09-29T09:27:42;11.70;99.90
51801;DHT22;37855;53.204;6.568;2022-09-29T09:30:17;11.80;99.90
51801;DHT22;37855;53.204;6.568;2022-09-29T09:32:54;11.90;99.90
51801;DHT22;37855;53.204;6.568;2022-09-29T09:35:33;12.00;99.90
51801;DHT22;37855;53.204;6.568;2022-09-29T09:38:12;12.00;99.90
51801;DHT22;37855;53.204;6.568;2022-09-29T09:40:44;12.10;99.90
51801;DHT22;37855;53.204;6.568;2022-09-29T09:43:21;12.20;99.90
51801;DHT22;37855;53.204;6.568;2022-09-29T09:48:35;12.30;99.90
51801;DHT22;37855;53.204;6.568;2022-09-29T09:53:53;12.40;99.90
51801;DHT22;37855;53.204;6.568;2022-09-29T09:56:49;12.40;99.90
51801;DHT22;37855;53.204;6.568;2022-09-29T09:59:50;12.50;99.90
51801;DHT22;37855;53.204;6.568;2022-09-29T10:02:20;12.60;99.90
51801;DHT22;37855;53.204;6.568;2022-09-29T10:04:50;12.60;99.90
51801;DHT22;37855;53.204;6.568;2022-09-29T10:07:20;12.70;99.90
51801;DHT22;37855;53.204;6.568;2022-09-29T10:09:47;12.80;99.90
51801;DHT22;37855;53.204;6.568;2022-09-29T10:12:21;12.80;99.90
51801;DHT22;37855;53.204;6.568;2022-09-29T10:15:00;12.90;99.90
51801;DHT22;37855;53.204;6.568;2022-09-29T10:17:32;12.90;99.90
51801;DHT22;37855;53.204;6.568;2022-09-29T10:20:06;13.00;99.90
51801;DHT22;37855;53.204;6.568;2022-09-29T10:22:35;13.00;99.90
51801;DHT22;37855;53.204;6.568;2022-09-29T10:25:17;13.00;99.90
51801;DHT22;37855;53.204;6.568;2022-09-29T10:27:46;13.10;99.90
51801;DHT22;37855;53.204;6.568;2022-09-29T10:30:23;13.10;99.90
51801;DHT22;37855;53.204;6.568;2022-09-29T10:32:56;13.10;99.90
51801;DHT22;37855;53.204;6.568;2022-09-29T10:35:37;13.20;99.90
51801;DHT22;37855;53.204;6.568;2022-09-29T10:38:23;13.20;99.90
51801;DHT22;37855;53.204;6.568;2022-09-29T10:40:58;13.30;99.90
51801;DHT22;37855;53.204;6.568;2022-09-29T10:43:46;13.40;99.90
51801;DHT22;37855;53.204;6.568;2022-09-29T10:49:18;13.50;99.90
51801;DHT22;37855;53.204;6.568;2022-09-29T10:54:32;13.50;97.10
51801;DHT22;37855;53.204;6.568;2022-09-29T10:56:59;13.50;98.30
51801;DHT22;37855;53.204;6.568;2022-09-29T10:59:35;13.40;98.20
51801;DHT22;37855;53.204;6.568;2022-09-29T11:02:21;13.40;99.10
51801;DHT22;37855;53.204;6.568;2022-09-29T11:04:49;13.50;98.90
51801;DHT22;37855;53.204;6.568;2022-09-29T11:07:16;13.50;98.80
51801;DHT22;37855;53.204;6.568;2022-09-29T11:09:45;13.60;99.30
51801;DHT22;37855;53.204;6.568;2022-09-29T11:12:31;13.60;99.20
51801;DHT22;37855;53.204;6.568;2022-09-29T11:14:59;13.80;98.30
51801;DHT22;37855;53.204;6.568;2022-09-29T11:17:31;13.80;98.30
51801;DHT22;37855;53.204;6.568;2022-09-29T11:20:02;13.90;98.40
51801;DHT22;37855;53.204;6.568;2022-09-29T11:30:53;14.40;97.10
51801;DHT22;37855;53.204;6.568;2022-09-29T11:36:17;14.50;94.20
51801;DHT22;37855;53.204;6.568;2022-09-29T11:39:19;14.50;92.60
51801;DHT22;37855;53.204;6.568;2022-09-29T11:42:07;14.50;92.10
51801;DHT22;37855;53.204;6.568;2022-09-29T11:53:03;14.20;92.20
51801;DHT22;37855;53.204;6.568;2022-09-29T11:55:50;14.10;92.30
51801;DHT22;37855;53.204;6.568;2022-09-29T12:01:51;14.10;92.80
51801;DHT22;37855;53.204;6.568;2022-09-29T12:04:27;14.00;92.10
51801;DHT22;37855;53.204;6.568;2022-09-29T12:10:01;14.10;91.70
51801;DHT22;37855;53.204;6.568;2022-09-29T12:15:29;14.30;90.80
51801;DHT22;37855;53.204;6.568;2022-09-29T12:18:02;14.40;89.50
51801;DHT22;37855;53.204;6.568;2022-09-29T12:20:38;14.50;86.90
51801;DHT22;37855;53.204;6.568;2022-09-29T12:23:12;14.50;86.10
51801;DHT22;37855;53.204;6.568;2022-09-29T12:25:57;14.50;87.50
51801;DHT22;37855;53.204;6.568;2022-09-29T12:28:33;14.60;87.70
51801;DHT22;37855;53.204;6.568;2022-09-29T12:31:03;14.50;86.60
51801;DHT22;37855;53.204;6.568;2022-09-29T12:33:49;14.50;86.70
51801;DHT22;37855;53.204;6.568;2022-09-29T12:39:31;14.30;86.80
51801;DHT22;37855;53.204;6.568;2022-09-29T12:50:38;14.10;89.30
51801;DHT22;37855;53.204;6.568;2022-09-29T12:56:16;14.00;89.30
51801;DHT22;37855;53.204;6.568;2022-09-29T12:58:56;14.00;89.20
51801;DHT22;37855;53.204;6.568;2022-09-29T13:01:35;14.00;88.30
51801;DHT22;37855;53.204;6.568;2022-09-29T13:15:06;14.00;87.60
51801;DHT22;37855;53.204;6.568;2022-09-29T13:23:04;14.00;90.40
51801;DHT22;37855;53.204;6.568;2022-09-29T13:26:01;14.10;90.50
51801;DHT22;37855;53.204;6.568;2022-09-29T13:28:44;14.10;90.40
51801;DHT22;37855;53.204;6.568;2022-09-29T13:31:14;14.10;90.50
51801;DHT22;37855;53.204;6.568;2022-09-29T13:33:56;14.10;90.50
51801;DHT22;37855;53.204;6.568;2022-09-29T13:36:33;14.10;90.80
51801;DHT22;37855;53.204;6.568;2022-09-29T13:39:16;14.10;91.00
51801;DHT22;37855;53.204;6.568;2022-09-29T13:41:45;14.20;91.10
51801;DHT22;37855;53.204;6.568;2022-09-29T13:46:43;14.20;91.60
51801;DHT22;37855;53.204;6.568;2022-09-29T13:51:50;14.20;91.90
51801;DHT22;37855;53.204;6.568;2022-09-29T13:54:38;14.20;91.50
51801;DHT22;37855;53.204;6.568;2022-09-29T14:02:36;14.10;90.90
51801;DHT22;37855;53.204;6.568;2022-09-29T14:05:05;14.10;90.30
51801;DHT22;37855;53.204;6.568;2022-09-29T14:08:17;14.10;90.10
51801;DHT22;37855;53.204;6.568;2022-09-29T14:10:49;14.10;89.00
51801;DHT22;37855;53.204;6.568;2022-09-29T14:13:27;14.10;89.60
51801;DHT22;37855;53.204;6.568;2022-09-29T14:18:39;14.10;90.30
51801;DHT22;37855;53.204;6.568;2022-09-29T14:21:13;14.00;91.90
51801;DHT22;37855;53.204;6.568;2022-09-29T14:26:49;13.80;94.70
51801;DHT22;37855;53.204;6.568;2022-09-29T14:29:27;13.70;94.40
51801;DHT22;37855;53.204;6.568;2022-09-29T14:31:58;13.60;92.50
51801;DHT22;37855;53.204;6.568;2022-09-29T14:34:30;13.50;93.20
51801;DHT22;37855;53.204;6.568;2022-09-29T14:36:59;13.30;95.90
51801;DHT22;37855;53.204;6.568;2022-09-29T14:39:26;13.20;99.00
51801;DHT22;37855;53.204;6.568;2022-09-29T14:41:52;13.20;99.90
51801;DHT22;37855;53.204;6.568;2022-09-29T14:44:28;13.30;99.90
51801;DHT22;37855;53.204;6.568;2022-09-29T14:47:45;13.00;99.90
51801;DHT22;37855;53.204;6.568;2022-09-29T14:51:35;13.00;99.90
51801;DHT22;37855;53.204;6.568;2022-09-29T14:54:10;12.90;99.90
51801;DHT22;37855;53.204;6.568;2022-09-29T15:02:18;13.10;99.90
51801;DHT22;37855;53.204;6.568;2022-09-29T15:04:45;13.10;99.90
51801;DHT22;37855;53.204;6.568;2022-09-29T15:07:17;13.10;99.90
51801;DHT22;37855;53.204;6.568;2022-09-29T15:09:57;13.20;99.90
51801;DHT22;37855;53.204;6.568;2022-09-29T15:12:28;13.20;99.90
51801;DHT22;37855;53.204;6.568;2022-09-29T15:14:55;13.30;99.90
51801;DHT22;37855;53.204;6.568;2022-09-29T15:17:53;13.20;99.90
51801;DHT22;37855;53.204;6.568;2022-09-29T15:25:59;13.30;99.90
51801;DHT22;37855;53.204;6.568;2022-09-29T15:31:03;13.20;99.90
51801;DHT22;37855;53.204;6.568;2022-09-29T15:33:36;13.20;99.90
51801;DHT22;37855;53.204;6.568;2022-09-29T15:36:19;13.20;99.90
51801;DHT22;37855;53.204;6.568;2022-09-29T15:41:17;13.30;99.90
51801;DHT22;37855;53.204;6.568;2022-09-29T15:44:13;13.20;99.90
51801;DHT22;37855;53.204;6.568;2022-09-29T15:46:55;13.30;99.90
51801;DHT22;37855;53.204;6.568;2022-09-29T15:49:23;13.30;99.90
51801;DHT22;37855;53.204;6.568;2022-09-29T15:52:04;13.20;99.90
51801;DHT22;37855;53.204;6.568;2022-09-29T15:54:35;13.30;99.90
51801;DHT22;37855;53.204;6.568;2022-09-29T15:57:05;13.20;99.90
51801;DHT22;37855;53.204;6.568;2022-09-29T15:59:52;13.20;99.90
51801;DHT22;37855;53.204;6.568;2022-09-29T16:05:00;13.20;99.90
51801;DHT22;37855;53.204;6.568;2022-09-29T16:07:33;13.30;99.90
51801;DHT22;37855;53.204;6.568;2022-09-29T16:10:15;13.50;99.90
51801;DHT22;37855;53.204;6.568;2022-09-29T16:12:48;13.50;99.90
51801;DHT22;37855;53.204;6.568;2022-09-29T16:17:54;13.50;99.90
51801;DHT22;37855;53.204;6.568;2022-09-29T16:20:26;13.40;99.90
51801;DHT22;37855;53.204;6.568;2022-09-29T16:23:04;13.40;99.90
51801;DHT22;37855;53.204;6.568;2022-09-29T16:25:30;13.40;99.90
51801;DHT22;37855;53.204;6.568;2022-09-29T16:28:01;13.40;99.90
51801;DHT22;37855;53.204;6.568;2022-09-29T16:30:34;13.40;99.90
51801;DHT22;37855;53.204;6.568;2022-09-29T16:35:45;13.40;99.90
51801;DHT22;37855;53.204;6.568;2022-09-29T16:40:45;13.30;99.90
51801;DHT22;37855;53.204;6.568;2022-09-29T16:45:53;13.50;99.90
51801;DHT22;37855;53.204;6.568;2022-09-29T16:48:27;13.40;99.90
51801;DHT22;37855;53.204;6.568;2022-09-29T16:50:55;13.30;99.90
51801;DHT22;37855;53.204;6.568;2022-09-29T16:53:31;13.30;99.90
51801;DHT22;37855;53.204;6.568;2022-09-29T16:56:09;13.30;99.90
51801;DHT22;37855;53.204;6.568;2022-09-29T16:58:43;13.30;99.90
51801;DHT22;37855;53.204;6.568;2022-09-29T17:01:10;13.20;99.90
51801;DHT22;37855;53.204;6.568;2022-09-29T17:03:39;13.20;99.90
51801;DHT22;37855;53.204;6.568;2022-09-29T17:06:14;13.20;99.90
51801;DHT22;37855;53.204;6.568;2022-09-29T17:08:41;13.10;99.90
51801;DHT22;37855;53.204;6.568;2022-09-29T17:11:06;13.10;99.90
51801;DHT22;37855;53.204;6.568;2022-09-29T17:13:34;13.10;99.90
51801;DHT22;37855;53.204;6.568;2022-09-29T17:16:00;13.00;99.90
51801;DHT22;37855;53.204;6.568;2022-09-29T17:18:26;13.00;99.90
51801;DHT22;37855;53.204;6.568;2022-09-29T17:20:53;12.90;99.90
51801;DHT22;37855;53.204;6.568;2022-09-29T17:23:19;12.90;99.90
51801;DHT22;37855;53.204;6.568;2022-09-29T17:25:49;12.80;99.90
51801;DHT22;37855;53.204;6.568;2022-09-29T17:28:38;12.80;99.90
51801;DHT22;37855;53.204;6.568;2022-09-29T17:31:08;12.70;99.90
51801;DHT22;37855;53.204;6.568;2022-09-29T17:33:36;12.70;99.90
51801;DHT22;37855;53.204;6.568;2022-09-29T17:36:08;12.70;99.90
51801;DHT22;37855;53.204;6.568;2022-09-29T17:38:37;12.60;99.90
51801;DHT22;37855;53.204;6.568;2022-09-29T17:41:09;12.50;99.90
51801;DHT22;37855;53.204;6.568;2022-09-29T17:43:42;12.60;99.90
51801;DHT22;37855;53.204;6.568;2022-09-29T17:46:14;12.50;99.90
51801;DHT22;37855;53.204;6.568;2022-09-29T17:48:40;12.50;99.90
51801;DHT22;37855;53.204;6.568;2022-09-29T17:51:12;12.50;99.90
51801;DHT22;37855;53.204;6.568;2022-09-29T17:53:38;12.50;99.90
51801;DHT22;37855;53.204;6.568;2022-09-29T17:56:04;12.40;99.90
51801;DHT22;37855;53.204;6.568;2022-09-29T17:58:29;12.40;99.90
51801;DHT22;37855;53.204;6.568;2022-09-29T18:00:55;12.30;99.90
51801;DHT22;37855;53.204;6.568;2022-09-29T18:03:22;12.30;99.90
51801;DHT22;37855;53.204;6.568;2022-09-29T18:05:51;12.30;99.90
51801;DHT22;37855;53.204;6.568;2022-09-29T18:08:26;12.30;99.90
51801;DHT22;37855;53.204;6.568;2022-09-29T18:13:21;12.20;99.90
51801;DHT22;37855;53.204;6.568;2022-09-29T18:15:48;12.20;99.90
51801;DHT22;37855;53.204;6.568;2022-09-29T18:18:16;12.20;99.90
51801;DHT22;37855;53.204;6.568;2022-09-29T18:20:43;12.20;99.90
51801;DHT22;37855;53.204;6.568;2022-09-29T18:23:23;12.10;99.90
51801;DHT22;37855;53.204;6.568;2022-09-29T18:25:50;12.10;99.90
51801;DHT22;37855;53.204;6.568;2022-09-29T18:28:18;12.00;99.90
51801;DHT22;37855;53.204;6.568;2022-09-29T18:30:46;12.00;99.90
51801;DHT22;37855;53.204;6.568;2022-09-29T18:33:16;11.90;99.90
51801;DHT22;37855;53.204;6.568;2022-09-29T18:35:45;12.00;99.90
51801;DHT22;37855;53.204;6.568;2022-09-29T18:38:11;11.90;99.90
51801;DHT22;37855;53.204;6.568;2022-09-29T18:40:39;11.90;99.90
51801;DHT22;37855;53.204;6.568;2022-09-29T18:43:08;12.00;99.90